sensor_id;sensor_type;location;lat;lon;timestamp;P1;durP1;ratioP1;P2;durP2;ratioP2
21239;SDS011;10778;48.962;9.018;2022-12-29T00:00:09;3.03;;;1.80;;
21239;SDS011;10778;48.962;9.018;2022-12-29T00:02:38;5.25;;;1.88;;
21239;SDS011;10778;48.962;9.018;2022-12-29T00:05:05;3.55;;;1.63;;
21239;SDS011;10778;48.962;9.018;2022-12-29T00:07:31;3.50;;;1.67;;
21239;SDS011;10778;48.962;9.018;2022-12-29T00:09:57;3.38;;;1.60;;
21239;SDS011;10778;48.962;9.018;2022-12-29T00:12:23;5.13;;;1.88;;
21239;SDS011;10778;48.962;9.018;2022-12-29T00:14:49;4.28;;;1.70;;
21239;SDS011;10778;48.962;9.018;2022-12-29T00:17:34;3.45;;;1.70;;
21239;SDS011;10778;48.962;9.018;2022-12-29T00:20:00;3.20;;;1.60;;
21239;SDS011;10778;48.962;9.018;2022-12-29T00:22:44;2.50;;;1.60;;
21239;SDS011;10778;48.962;9.018;2022-12-29T00:25:29;3.13;;;1.60;;
21239;SDS011;10778;48.962;9.018;2022-12-29T00:28:13;2.53;;;1.30;;
21239;SDS011;10778;48.962;9.018;2022-12-29T00:30:59;2.50;;;1.40;;
21239;SDS011;10778;48.962;9.018;2022-12-29T00:33:44;3.47;;;1.35;;
21239;SDS011;10778;48.962;9.018;2022-12-29T00:36:30;4.22;;;1.60;;
21239;SDS011;10778;48.962;9.018;2022-12-29T00:39:01;2.78;;;1.58;;
21239;SDS011;10778;48.962;9.018;2022-12-29T00:41:49;2.72;;;1.67;;
21239;SDS011;10778;48.962;9.018;2022-12-29T00:44:33;2.85;;;1.48;;
21239;SDS011;10778;48.962;9.018;2022-12-29T00:46:59;2.47;;;1.60;;
21239;SDS011;10778;48.962;9.018;2022-12-29T00:49:31;2.90;;;1.70;;
21239;SDS011;10778;48.962;9.018;2022-12-29T00:52:02;2.72;;;1.40;;
21239;SDS011;10778;48.962;9.018;2022-12-29T00:54:31;3.08;;;1.60;;
21239;SDS011;10778;48.962;9.018;2022-12-29T00:56:59;3.33;;;1.52;;
21239;SDS011;10778;48.962;9.018;2022-12-29T00:59:25;2.58;;;1.58;;
21239;SDS011;10778;48.962;9.018;2022-12-29T01:01:51;3.72;;;1.38;;
21239;SDS011;10778;48.962;9.018;2022-12-29T01:04:19;4.32;;;1.50;;
21239;SDS011;10778;48.962;9.018;2022-12-29T01:06:50;4.30;;;1.45;;
21239;SDS011;10778;48.962;9.018;2022-12-29T01:09:16;3.20;;;1.30;;
21239;SDS011;10778;48.962;9.018;2022-12-29T01:12:02;3.60;;;1.42;;
21239;SDS011;10778;48.962;9.018;2022-12-29T01:14:29;3.70;;;1.35;;
21239;SDS011;10778;48.962;9.018;2022-12-29T01:16:56;6.07;;;1.60;;
21239;SDS011;10778;48.962;9.018;2022-12-29T01:19:24;2.88;;;1.45;;
21239;SDS011;10778;48.962;9.018;2022-12-29T01:21:50;3.63;;;1.65;;
21239;SDS011;10778;48.962;9.018;2022-12-29T01:24:16;2.08;;;1.30;;
21239;SDS011;10778;48.962;9.018;2022-12-29T01:26:45;4.22;;;1.60;;
21239;SDS011;10778;48.962;9.018;2022-12-29T01:29:12;3.75;;;1.50;;
21239;SDS011;10778;48.962;9.018;2022-12-29T01:31:38;3.85;;;1.50;;
21239;SDS011;10778;48.962;9.018;2022-12-29T01:34:04;3.67;;;1.58;;
21239;SDS011;10778;48.962;9.018;2022-12-29T01:36:32;4.00;;;1.48;;
21239;SDS011;10778;48.962;9.018;2022-12-29T01:38:58;3.63;;;1.17;;
21239;SDS011;10778;48.962;9.018;2022-12-29T01:41:25;2.03;;;1.15;;
21239;SDS011;10778;48.962;9.018;2022-12-29T01:43:52;4.57;;;1.50;;
21239;SDS011;10778;48.962;9.018;2022-12-29T01:46:41;2.92;;;1.27;;
21239;SDS011;10778;48.962;9.018;2022-12-29T01:49:13;2.03;;;1.20;;
21239;SDS011;10778;48.962;9.018;2022-12-29T01:51:45;5.47;;;1.27;;
21239;SDS011;10778;48.962;9.018;2022-12-29T01:54:24;3.42;;;1.30;;
21239;SDS011;10778;48.962;9.018;2022-12-29T01:56:54;2.53;;;1.20;;
21239;SDS011;10778;48.962;9.018;2022-12-29T01:59:24;3.70;;;1.40;;
21239;SDS011;10778;48.962;9.018;2022-12-29T02:01:55;2.70;;;1.20;;
21239;SDS011;10778;48.962;9.018;2022-12-29T02:04:22;5.53;;;2.03;;
21239;SDS011;10778;48.962;9.018;2022-12-29T02:06:55;6.47;;;2.60;;
21239;SDS011;10778;48.962;9.018;2022-12-29T02:09:26;7.10;;;1.90;;
21239;SDS011;10778;48.962;9.018;2022-12-29T02:11:52;5.65;;;1.88;;
21239;SDS011;10778;48.962;9.018;2022-12-29T02:14:19;4.07;;;1.88;;
21239;SDS011;10778;48.962;9.018;2022-12-29T02:19:39;5.22;;;2.00;;
21239;SDS011;10778;48.962;9.018;2022-12-29T02:33:13;4.00;;;1.60;;
21239;SDS011;10778;48.962;9.018;2022-12-29T02:35:50;4.22;;;1.75;;
21239;SDS011;10778;48.962;9.018;2022-12-29T02:41:12;3.25;;;1.60;;
21239;SDS011;10778;48.962;9.018;2022-12-29T02:46:27;4.18;;;1.70;;
21239;SDS011;10778;48.962;9.018;2022-12-29T02:49:03;5.25;;;1.75;;
21239;SDS011;10778;48.962;9.018;2022-12-29T02:51:33;3.22;;;1.40;;
21239;SDS011;10778;48.962;9.018;2022-12-29T02:54:04;2.20;;;1.60;;
21239;SDS011;10778;48.962;9.018;2022-12-29T02:56:49;3.03;;;1.65;;
21239;SDS011;10778;48.962;9.018;2022-12-29T02:59:16;2.30;;;1.38;;
21239;SDS011;10778;48.962;9.018;2022-12-29T03:08:04;3.00;;;1.80;;
21239;SDS011;10778;48.962;9.018;2022-12-29T03:13:29;3.42;;;1.30;;
21239;SDS011;10778;48.962;9.018;2022-12-29T03:16:23;3.42;;;1.38;;
21239;SDS011;10778;48.962;9.018;2022-12-29T03:19:02;3.00;;;1.25;;
21239;SDS011;10778;48.962;9.018;2022-12-29T03:21:36;4.18;;;1.70;;
21239;SDS011;10778;48.962;9.018;2022-12-29T03:24:26;3.28;;;1.30;;
21239;SDS011;10778;48.962;9.018;2022-12-29T03:26:56;2.05;;;1.20;;
21239;SDS011;10778;48.962;9.018;2022-12-29T03:29:31;2.95;;;1.35;;
21239;SDS011;10778;48.962;9.018;2022-12-29T03:32:01;2.13;;;1.55;;
21239;SDS011;10778;48.962;9.018;2022-12-29T03:34:29;3.38;;;1.30;;
21239;SDS011;10778;48.962;9.018;2022-12-29T03:37:05;4.13;;;1.80;;
21239;SDS011;10778;48.962;9.018;2022-12-29T03:39:38;3.97;;;1.70;;
21239;SDS011;10778;48.962;9.018;2022-12-29T03:42:05;3.35;;;1.70;;
21239;SDS011;10778;48.962;9.018;2022-12-29T03:44:39;3.50;;;1.60;;
21239;SDS011;10778;48.962;9.018;2022-12-29T03:47:09;3.65;;;1.73;;
21239;SDS011;10778;48.962;9.018;2022-12-29T03:49:37;3.30;;;1.67;;
21239;SDS011;10778;48.962;9.018;2022-12-29T03:52:04;2.50;;;1.42;;
21239;SDS011;10778;48.962;9.018;2022-12-29T03:54:33;2.15;;;1.40;;
21239;SDS011;10778;48.962;9.018;2022-12-29T03:56:59;3.00;;;1.52;;
21239;SDS011;10778;48.962;9.018;2022-12-29T03:59:47;3.65;;;1.60;;
21239;SDS011;10778;48.962;9.018;2022-12-29T04:02:13;3.80;;;1.52;;
21239;SDS011;10778;48.962;9.018;2022-12-29T04:04:41;3.28;;;1.65;;
21239;SDS011;10778;48.962;9.018;2022-12-29T04:07:07;3.88;;;1.60;;
21239;SDS011;10778;48.962;9.018;2022-12-29T04:09:33;3.28;;;1.40;;
21239;SDS011;10778;48.962;9.018;2022-12-29T04:11:59;2.58;;;1.40;;
21239;SDS011;10778;48.962;9.018;2022-12-29T04:14:26;2.42;;;1.42;;
21239;SDS011;10778;48.962;9.018;2022-12-29T04:16:52;2.95;;;1.42;;
21239;SDS011;10778;48.962;9.018;2022-12-29T04:19:21;2.58;;;1.40;;
21239;SDS011;10778;48.962;9.018;2022-12-29T04:21:48;2.95;;;1.50;;
21239;SDS011;10778;48.962;9.018;2022-12-29T04:24:15;2.05;;;1.40;;
21239;SDS011;10778;48.962;9.018;2022-12-29T04:26:41;3.85;;;1.35;;
21239;SDS011;10778;48.962;9.018;2022-12-29T04:29:24;2.97;;;1.10;;
21239;SDS011;10778;48.962;9.018;2022-12-29T04:32:08;3.58;;;1.20;;
21239;SDS011;10778;48.962;9.018;2022-12-29T04:34:38;2.42;;;1.20;;
21239;SDS011;10778;48.962;9.018;2022-12-29T04:37:05;3.83;;;1.20;;
21239;SDS011;10778;48.962;9.018;2022-12-29T04:39:31;3.63;;;1.30;;
21239;SDS011;10778;48.962;9.018;2022-12-29T04:41:59;2.80;;;1.23;;
21239;SDS011;10778;48.962;9.018;2022-12-29T04:44:25;3.78;;;1.15;;
21239;SDS011;10778;48.962;9.018;2022-12-29T04:47:20;4.28;;;1.10;;
21239;SDS011;10778;48.962;9.018;2022-12-29T04:49:56;3.53;;;1.20;;
21239;SDS011;10778;48.962;9.018;2022-12-29T04:52:38;3.75;;;1.20;;
21239;SDS011;10778;48.962;9.018;2022-12-29T04:55:05;2.00;;;1.10;;
21239;SDS011;10778;48.962;9.018;2022-12-29T04:57:32;3.03;;;1.10;;
21239;SDS011;10778;48.962;9.018;2022-12-29T04:59:59;2.97;;;1.20;;
21239;SDS011;10778;48.962;9.018;2022-12-29T05:02:26;3.58;;;1.02;;
21239;SDS011;10778;48.962;9.018;2022-12-29T05:04:53;3.10;;;1.10;;
21239;SDS011;10778;48.962;9.018;2022-12-29T05:07:20;3.63;;;1.00;;
21239;SDS011;10778;48.962;9.018;2022-12-29T05:09:47;3.17;;;1.17;;
21239;SDS011;10778;48.962;9.018;2022-12-29T05:12:14;2.35;;;1.25;;
21239;SDS011;10778;48.962;9.018;2022-12-29T05:14:51;2.08;;;1.20;;
21239;SDS011;10778;48.962;9.018;2022-12-29T05:17:18;1.60;;;1.00;;
21239;SDS011;10778;48.962;9.018;2022-12-29T05:19:44;1.63;;;1.23;;
21239;SDS011;10778;48.962;9.018;2022-12-29T05:22:11;1.73;;;1.10;;
21239;SDS011;10778;48.962;9.018;2022-12-29T05:24:38;2.47;;;1.30;;
21239;SDS011;10778;48.962;9.018;2022-12-29T05:27:05;4.55;;;1.33;;
21239;SDS011;10778;48.962;9.018;2022-12-29T05:29:48;2.78;;;1.48;;
21239;SDS011;10778;48.962;9.018;2022-12-29T05:32:14;3.33;;;1.63;;
21239;SDS011;10778;48.962;9.018;2022-12-29T05:34:42;4.28;;;1.80;;
21239;SDS011;10778;48.962;9.018;2022-12-29T05:37:08;3.17;;;1.38;;
21239;SDS011;10778;48.962;9.018;2022-12-29T05:39:34;2.60;;;1.20;;
21239;SDS011;10778;48.962;9.018;2022-12-29T05:42:03;1.95;;;1.05;;
21239;SDS011;10778;48.962;9.018;2022-12-29T05:44:52;3.65;;;1.20;;
21239;SDS011;10778;48.962;9.018;2022-12-29T05:47:51;3.55;;;1.17;;
21239;SDS011;10778;48.962;9.018;2022-12-29T05:50:40;2.63;;;1.20;;
21239;SDS011;10778;48.962;9.018;2022-12-29T05:53:12;3.67;;;1.50;;
21239;SDS011;10778;48.962;9.018;2022-12-29T05:55:38;2.05;;;1.10;;
21239;SDS011;10778;48.962;9.018;2022-12-29T05:58:05;2.63;;;1.40;;
21239;SDS011;10778;48.962;9.018;2022-12-29T06:00:31;3.65;;;1.42;;
21239;SDS011;10778;48.962;9.018;2022-12-29T06:02:58;2.45;;;1.30;;
21239;SDS011;10778;48.962;9.018;2022-12-29T06:05:24;3.85;;;1.27;;
21239;SDS011;10778;48.962;9.018;2022-12-29T06:07:50;2.00;;;1.30;;
21239;SDS011;10778;48.962;9.018;2022-12-29T06:10:16;3.35;;;1.45;;
21239;SDS011;10778;48.962;9.018;2022-12-29T06:12:57;1.65;;;1.30;;
21239;SDS011;10778;48.962;9.018;2022-12-29T06:15:23;2.75;;;1.40;;
21239;SDS011;10778;48.962;9.018;2022-12-29T06:17:50;3.13;;;1.40;;
21239;SDS011;10778;48.962;9.018;2022-12-29T06:20:16;2.65;;;1.35;;
21239;SDS011;10778;48.962;9.018;2022-12-29T06:22:43;3.88;;;1.63;;
21239;SDS011;10778;48.962;9.018;2022-12-29T06:25:09;3.78;;;1.70;;
21239;SDS011;10778;48.962;9.018;2022-12-29T06:27:35;2.35;;;1.38;;
21239;SDS011;10778;48.962;9.018;2022-12-29T06:30:02;4.93;;;1.73;;
21239;SDS011;10778;48.962;9.018;2022-12-29T06:32:28;2.38;;;1.80;;
21239;SDS011;10778;48.962;9.018;2022-12-29T06:35:00;3.60;;;1.90;;
21239;SDS011;10778;48.962;9.018;2022-12-29T06:37:26;6.25;;;3.85;;
21239;SDS011;10778;48.962;9.018;2022-12-29T06:39:52;2.80;;;2.20;;
21239;SDS011;10778;48.962;9.018;2022-12-29T06:42:20;4.63;;;2.88;;
21239;SDS011;10778;48.962;9.018;2022-12-29T06:45:06;3.65;;;2.28;;
21239;SDS011;10778;48.962;9.018;2022-12-29T06:47:33;3.28;;;2.33;;
21239;SDS011;10778;48.962;9.018;2022-12-29T06:50:00;4.72;;;3.67;;
21239;SDS011;10778;48.962;9.018;2022-12-29T06:52:26;4.63;;;2.75;;
21239;SDS011;10778;48.962;9.018;2022-12-29T06:54:54;3.28;;;1.90;;
21239;SDS011;10778;48.962;9.018;2022-12-29T06:57:21;4.60;;;1.98;;
21239;SDS011;10778;48.962;9.018;2022-12-29T06:59:47;3.05;;;1.90;;
21239;SDS011;10778;48.962;9.018;2022-12-29T07:02:13;3.50;;;1.67;;
21239;SDS011;10778;48.962;9.018;2022-12-29T07:04:45;3.25;;;1.80;;
21239;SDS011;10778;48.962;9.018;2022-12-29T07:07:11;4.35;;;2.22;;
21239;SDS011;10778;48.962;9.018;2022-12-29T07:09:37;3.08;;;1.73;;
21239;SDS011;10778;48.962;9.018;2022-12-29T07:12:03;3.95;;;1.70;;
21239;SDS011;10778;48.962;9.018;2022-12-29T07:14:29;3.05;;;1.55;;
21239;SDS011;10778;48.962;9.018;2022-12-29T07:16:55;3.95;;;1.70;;
21239;SDS011;10778;48.962;9.018;2022-12-29T07:19:21;3.65;;;1.80;;
21239;SDS011;10778;48.962;9.018;2022-12-29T07:21:47;4.18;;;1.80;;
21239;SDS011;10778;48.962;9.018;2022-12-29T07:24:13;5.25;;;1.80;;
21239;SDS011;10778;48.962;9.018;2022-12-29T07:26:39;3.63;;;1.80;;
21239;SDS011;10778;48.962;9.018;2022-12-29T07:29:05;4.35;;;1.63;;
21239;SDS011;10778;48.962;9.018;2022-12-29T07:31:31;2.33;;;1.52;;
21239;SDS011;10778;48.962;9.018;2022-12-29T07:33:57;2.83;;;1.55;;
21239;SDS011;10778;48.962;9.018;2022-12-29T07:36:23;3.30;;;1.50;;
21239;SDS011;10778;48.962;9.018;2022-12-29T07:38:49;2.97;;;1.60;;
21239;SDS011;10778;48.962;9.018;2022-12-29T07:41:15;3.65;;;1.90;;
21239;SDS011;10778;48.962;9.018;2022-12-29T07:43:41;3.45;;;1.70;;
21239;SDS011;10778;48.962;9.018;2022-12-29T07:46:42;3.70;;;2.10;;
21239;SDS011;10778;48.962;9.018;2022-12-29T07:49:08;4.10;;;1.52;;
21239;SDS011;10778;48.962;9.018;2022-12-29T07:51:34;4.97;;;1.70;;
21239;SDS011;10778;48.962;9.018;2022-12-29T07:54:00;3.70;;;1.60;;
21239;SDS011;10778;48.962;9.018;2022-12-29T07:56:26;3.67;;;1.70;;
21239;SDS011;10778;48.962;9.018;2022-12-29T07:58:52;2.30;;;1.45;;
21239;SDS011;10778;48.962;9.018;2022-12-29T08:01:18;3.83;;;1.77;;
21239;SDS011;10778;48.962;9.018;2022-12-29T08:03:44;2.88;;;1.55;;
21239;SDS011;10778;48.962;9.018;2022-12-29T08:06:11;4.90;;;1.42;;
21239;SDS011;10778;48.962;9.018;2022-12-29T08:08:37;2.78;;;1.55;;
21239;SDS011;10778;48.962;9.018;2022-12-29T08:11:03;2.97;;;1.63;;
21239;SDS011;10778;48.962;9.018;2022-12-29T08:13:29;2.55;;;1.45;;
21239;SDS011;10778;48.962;9.018;2022-12-29T08:15:57;2.63;;;1.60;;
21239;SDS011;10778;48.962;9.018;2022-12-29T08:18:24;5.88;;;2.00;;
21239;SDS011;10778;48.962;9.018;2022-12-29T08:20:50;3.67;;;1.60;;
21239;SDS011;10778;48.962;9.018;2022-12-29T08:23:16;3.60;;;1.70;;
21239;SDS011;10778;48.962;9.018;2022-12-29T08:25:42;3.67;;;1.70;;
21239;SDS011;10778;48.962;9.018;2022-12-29T08:28:08;6.03;;;2.08;;
21239;SDS011;10778;48.962;9.018;2022-12-29T08:30:35;4.50;;;1.70;;
21239;SDS011;10778;48.962;9.018;2022-12-29T08:33:01;4.45;;;2.00;;
21239;SDS011;10778;48.962;9.018;2022-12-29T08:35:27;3.25;;;1.70;;
21239;SDS011;10778;48.962;9.018;2022-12-29T08:37:53;2.70;;;1.80;;
21239;SDS011;10778;48.962;9.018;2022-12-29T08:40:19;3.80;;;1.77;;
21239;SDS011;10778;48.962;9.018;2022-12-29T08:42:45;3.05;;;1.77;;
21239;SDS011;10778;48.962;9.018;2022-12-29T08:45:11;5.05;;;1.60;;
21239;SDS011;10778;48.962;9.018;2022-12-29T08:47:37;4.10;;;1.80;;
21239;SDS011;10778;48.962;9.018;2022-12-29T08:50:03;3.55;;;1.80;;
21239;SDS011;10778;48.962;9.018;2022-12-29T08:52:30;4.25;;;1.60;;
21239;SDS011;10778;48.962;9.018;2022-12-29T08:54:56;3.75;;;1.70;;
21239;SDS011;10778;48.962;9.018;2022-12-29T08:57:22;3.45;;;1.80;;
21239;SDS011;10778;48.962;9.018;2022-12-29T09:00:04;2.67;;;1.70;;
21239;SDS011;10778;48.962;9.018;2022-12-29T09:02:31;3.63;;;1.30;;
21239;SDS011;10778;48.962;9.018;2022-12-29T09:04:57;3.25;;;1.40;;
21239;SDS011;10778;48.962;9.018;2022-12-29T09:07:24;4.68;;;1.70;;
21239;SDS011;10778;48.962;9.018;2022-12-29T09:09:50;2.47;;;1.60;;
21239;SDS011;10778;48.962;9.018;2022-12-29T09:12:16;3.80;;;1.70;;
21239;SDS011;10778;48.962;9.018;2022-12-29T09:14:43;3.40;;;1.70;;
21239;SDS011;10778;48.962;9.018;2022-12-29T09:17:11;3.30;;;1.75;;
21239;SDS011;10778;48.962;9.018;2022-12-29T09:19:56;5.55;;;1.70;;
21239;SDS011;10778;48.962;9.018;2022-12-29T09:22:22;3.30;;;1.70;;
21239;SDS011;10778;48.962;9.018;2022-12-29T09:24:48;3.63;;;1.50;;
21239;SDS011;10778;48.962;9.018;2022-12-29T09:27:14;4.78;;;1.65;;
21239;SDS011;10778;48.962;9.018;2022-12-29T09:29:40;4.22;;;1.67;;
21239;SDS011;10778;48.962;9.018;2022-12-29T09:32:06;4.97;;;1.75;;
21239;SDS011;10778;48.962;9.018;2022-12-29T09:34:33;3.90;;;1.80;;
21239;SDS011;10778;48.962;9.018;2022-12-29T09:36:59;4.93;;;1.50;;
21239;SDS011;10778;48.962;9.018;2022-12-29T09:39:25;3.10;;;1.40;;
21239;SDS011;10778;48.962;9.018;2022-12-29T09:42:04;4.18;;;1.50;;
21239;SDS011;10778;48.962;9.018;2022-12-29T09:47:16;4.15;;;1.73;;
21239;SDS011;10778;48.962;9.018;2022-12-29T09:49:46;3.33;;;1.60;;
21239;SDS011;10778;48.962;9.018;2022-12-29T09:52:17;2.65;;;1.50;;
21239;SDS011;10778;48.962;9.018;2022-12-29T09:54:54;1.65;;;1.27;;
21239;SDS011;10778;48.962;9.018;2022-12-29T09:57:24;2.78;;;1.10;;
21239;SDS011;10778;48.962;9.018;2022-12-29T09:59:59;2.38;;;1.30;;
21239;SDS011;10778;48.962;9.018;2022-12-29T10:02:39;2.35;;;1.50;;
21239;SDS011;10778;48.962;9.018;2022-12-29T10:05:18;2.55;;;1.40;;
21239;SDS011;10778;48.962;9.018;2022-12-29T10:07:46;3.55;;;1.20;;
21239;SDS011;10778;48.962;9.018;2022-12-29T10:13:28;2.15;;;1.10;;
21239;SDS011;10778;48.962;9.018;2022-12-29T10:22:13;2.10;;;0.93;;
21239;SDS011;10778;48.962;9.018;2022-12-29T10:24:45;2.95;;;0.98;;
21239;SDS011;10778;48.962;9.018;2022-12-29T10:27:14;4.32;;;1.10;;
21239;SDS011;10778;48.962;9.018;2022-12-29T10:29:44;3.30;;;1.20;;
21239;SDS011;10778;48.962;9.018;2022-12-29T10:35:20;2.30;;;1.10;;
21239;SDS011;10778;48.962;9.018;2022-12-29T10:38:25;3.40;;;1.30;;
21239;SDS011;10778;48.962;9.018;2022-12-29T10:41:04;2.45;;;1.27;;
21239;SDS011;10778;48.962;9.018;2022-12-29T10:43:46;2.65;;;1.00;;
21239;SDS011;10778;48.962;9.018;2022-12-29T10:46:17;1.75;;;1.40;;
21239;SDS011;10778;48.962;9.018;2022-12-29T10:48:48;3.70;;;1.50;;
21239;SDS011;10778;48.962;9.018;2022-12-29T10:51:18;3.35;;;1.42;;
21239;SDS011;10778;48.962;9.018;2022-12-29T10:56:34;2.35;;;0.90;;
21239;SDS011;10778;48.962;9.018;2022-12-29T10:59:12;2.30;;;1.00;;
21239;SDS011;10778;48.962;9.018;2022-12-29T11:01:55;3.58;;;1.08;;
21239;SDS011;10778;48.962;9.018;2022-12-29T11:04:45;1.98;;;0.93;;
21239;SDS011;10778;48.962;9.018;2022-12-29T11:07:28;2.20;;;1.00;;
21239;SDS011;10778;48.962;9.018;2022-12-29T11:10:03;2.58;;;0.80;;
21239;SDS011;10778;48.962;9.018;2022-12-29T11:12:54;1.58;;;0.85;;
21239;SDS011;10778;48.962;9.018;2022-12-29T11:15:22;2.28;;;1.10;;
21239;SDS011;10778;48.962;9.018;2022-12-29T11:17:58;2.25;;;1.30;;
21239;SDS011;10778;48.962;9.018;2022-12-29T11:20:32;2.88;;;0.90;;
21239;SDS011;10778;48.962;9.018;2022-12-29T11:23:01;1.73;;;1.10;;
21239;SDS011;10778;48.962;9.018;2022-12-29T11:25:28;2.28;;;1.15;;
21239;SDS011;10778;48.962;9.018;2022-12-29T11:28:02;3.67;;;1.20;;
21239;SDS011;10778;48.962;9.018;2022-12-29T11:30:40;6.72;;;1.23;;
21239;SDS011;10778;48.962;9.018;2022-12-29T11:33:07;4.18;;;1.50;;
21239;SDS011;10778;48.962;9.018;2022-12-29T11:35:36;5.38;;;1.60;;
21239;SDS011;10778;48.962;9.018;2022-12-29T11:38:07;2.80;;;1.30;;
21239;SDS011;10778;48.962;9.018;2022-12-29T11:40:46;3.85;;;1.20;;
21239;SDS011;10778;48.962;9.018;2022-12-29T11:43:18;4.75;;;1.27;;
21239;SDS011;10778;48.962;9.018;2022-12-29T11:45:53;4.75;;;1.20;;
21239;SDS011;10778;48.962;9.018;2022-12-29T11:48:20;2.63;;;1.30;;
21239;SDS011;10778;48.962;9.018;2022-12-29T11:50:50;2.83;;;1.30;;
21239;SDS011;10778;48.962;9.018;2022-12-29T11:56:04;1.98;;;1.02;;
21239;SDS011;10778;48.962;9.018;2022-12-29T11:58:35;4.32;;;1.38;;
21239;SDS011;10778;48.962;9.018;2022-12-29T12:09:45;1.55;;;0.80;;
21239;SDS011;10778;48.962;9.018;2022-12-29T12:12:24;1.52;;;0.70;;
21239;SDS011;10778;48.962;9.018;2022-12-29T12:14:58;2.28;;;0.80;;
21239;SDS011;10778;48.962;9.018;2022-12-29T12:17:53;1.85;;;0.80;;
21239;SDS011;10778;48.962;9.018;2022-12-29T12:20:26;2.00;;;0.90;;
21239;SDS011;10778;48.962;9.018;2022-12-29T12:28:58;1.67;;;0.85;;
21239;SDS011;10778;48.962;9.018;2022-12-29T12:31:38;1.95;;;0.80;;
21239;SDS011;10778;48.962;9.018;2022-12-29T12:34:31;1.33;;;0.75;;
21239;SDS011;10778;48.962;9.018;2022-12-29T13:10:02;2.22;;;1.10;;
21239;SDS011;10778;48.962;9.018;2022-12-29T13:18:04;1.83;;;1.23;;
21239;SDS011;10778;48.962;9.018;2022-12-29T13:20:56;3.25;;;1.80;;
21239;SDS011;10778;48.962;9.018;2022-12-29T13:23:42;3.83;;;1.60;;
21239;SDS011;10778;48.962;9.018;2022-12-29T13:26:33;5.93;;;3.75;;
21239;SDS011;10778;48.962;9.018;2022-12-29T13:29:23;3.75;;;1.98;;
21239;SDS011;10778;48.962;9.018;2022-12-29T13:37:27;3.00;;;1.10;;
21239;SDS011;10778;48.962;9.018;2022-12-29T13:40:04;2.80;;;1.10;;
21239;SDS011;10778;48.962;9.018;2022-12-29T13:42:39;3.63;;;1.45;;
21239;SDS011;10778;48.962;9.018;2022-12-29T13:45:06;3.40;;;1.42;;
21239;SDS011;10778;48.962;9.018;2022-12-29T13:47:42;2.28;;;1.40;;
21239;SDS011;10778;48.962;9.018;2022-12-29T13:50:17;3.08;;;1.38;;
21239;SDS011;10778;48.962;9.018;2022-12-29T13:55:25;3.05;;;1.00;;
21239;SDS011;10778;48.962;9.018;2022-12-29T14:00:21;1.85;;;1.10;;
21239;SDS011;10778;48.962;9.018;2022-12-29T14:03:10;1.75;;;0.80;;
21239;SDS011;10778;48.962;9.018;2022-12-29T14:05:46;1.45;;;1.15;;
21239;SDS011;10778;48.962;9.018;2022-12-29T14:08:30;3.33;;;1.23;;
21239;SDS011;10778;48.962;9.018;2022-12-29T14:11:01;4.20;;;1.27;;
21239;SDS011;10778;48.962;9.018;2022-12-29T14:13:36;2.67;;;1.48;;
21239;SDS011;10778;48.962;9.018;2022-12-29T14:16:05;4.45;;;1.63;;
21239;SDS011;10778;48.962;9.018;2022-12-29T14:18:32;2.67;;;1.58;;
21239;SDS011;10778;48.962;9.018;2022-12-29T14:28:36;2.83;;;1.20;;
21239;SDS011;10778;48.962;9.018;2022-12-29T14:33:41;3.25;;;1.30;;
21239;SDS011;10778;48.962;9.018;2022-12-29T14:36:33;3.28;;;1.40;;
21239;SDS011;10778;48.962;9.018;2022-12-29T14:39:00;4.20;;;2.45;;
21239;SDS011;10778;48.962;9.018;2022-12-29T14:41:30;3.55;;;1.70;;
21239;SDS011;10778;48.962;9.018;2022-12-29T14:49:22;5.45;;;1.67;;
21239;SDS011;10778;48.962;9.018;2022-12-29T14:51:52;3.53;;;1.88;;
21239;SDS011;10778;48.962;9.018;2022-12-29T14:57:06;4.25;;;1.98;;
21239;SDS011;10778;48.962;9.018;2022-12-29T14:59:36;4.72;;;2.05;;
21239;SDS011;10778;48.962;9.018;2022-12-29T15:02:03;3.25;;;1.85;;
21239;SDS011;10778;48.962;9.018;2022-12-29T15:04:38;2.95;;;2.15;;
21239;SDS011;10778;48.962;9.018;2022-12-29T15:07:07;4.75;;;3.08;;
21239;SDS011;10778;48.962;9.018;2022-12-29T15:09:40;3.65;;;2.15;;
21239;SDS011;10778;48.962;9.018;2022-12-29T15:15:10;2.92;;;1.90;;
21239;SDS011;10778;48.962;9.018;2022-12-29T15:17:44;3.50;;;1.80;;
21239;SDS011;10778;48.962;9.018;2022-12-29T15:22:56;4.93;;;2.20;;
21239;SDS011;10778;48.962;9.018;2022-12-29T15:25:24;2.30;;;1.17;;
21239;SDS011;10778;48.962;9.018;2022-12-29T15:27:52;3.00;;;1.20;;
21239;SDS011;10778;48.962;9.018;2022-12-29T15:30:21;1.75;;;1.15;;
21239;SDS011;10778;48.962;9.018;2022-12-29T15:32:49;2.78;;;1.48;;
21239;SDS011;10778;48.962;9.018;2022-12-29T15:35:34;4.97;;;1.88;;
21239;SDS011;10778;48.962;9.018;2022-12-29T15:38:24;3.97;;;1.70;;
21239;SDS011;10778;48.962;9.018;2022-12-29T15:40:53;3.92;;;2.08;;
21239;SDS011;10778;48.962;9.018;2022-12-29T15:46:19;3.35;;;1.80;;
21239;SDS011;10778;48.962;9.018;2022-12-29T15:48:46;7.22;;;2.20;;
21239;SDS011;10778;48.962;9.018;2022-12-29T15:51:31;4.47;;;2.20;;
21239;SDS011;10778;48.962;9.018;2022-12-29T15:54:00;5.13;;;2.10;;
21239;SDS011;10778;48.962;9.018;2022-12-29T15:56:30;3.03;;;1.80;;
21239;SDS011;10778;48.962;9.018;2022-12-29T15:58:59;2.08;;;1.65;;
21239;SDS011;10778;48.962;9.018;2022-12-29T16:01:32;3.38;;;2.17;;
21239;SDS011;10778;48.962;9.018;2022-12-29T16:04:01;2.92;;;2.30;;
21239;SDS011;10778;48.962;9.018;2022-12-29T16:06:35;3.38;;;2.00;;
21239;SDS011;10778;48.962;9.018;2022-12-29T16:09:19;3.80;;;2.17;;
21239;SDS011;10778;48.962;9.018;2022-12-29T16:12:02;4.45;;;2.22;;
21239;SDS011;10778;48.962;9.018;2022-12-29T16:14:37;3.72;;;2.08;;
21239;SDS011;10778;48.962;9.018;2022-12-29T16:17:10;5.32;;;2.50;;
21239;SDS011;10778;48.962;9.018;2022-12-29T16:19:39;3.78;;;2.35;;
21239;SDS011;10778;48.962;9.018;2022-12-29T16:22:10;4.43;;;2.28;;
21239;SDS011;10778;48.962;9.018;2022-12-29T16:24:41;4.63;;;2.97;;
21239;SDS011;10778;48.962;9.018;2022-12-29T16:27:08;4.13;;;2.70;;
21239;SDS011;10778;48.962;9.018;2022-12-29T16:29:41;3.50;;;2.28;;
21239;SDS011;10778;48.962;9.018;2022-12-29T16:32:23;3.33;;;2.60;;
21239;SDS011;10778;48.962;9.018;2022-12-29T16:35:02;3.13;;;2.30;;
21239;SDS011;10778;48.962;9.018;2022-12-29T16:38:12;3.58;;;2.55;;
21239;SDS011;10778;48.962;9.018;2022-12-29T16:40:59;4.90;;;2.65;;
21239;SDS011;10778;48.962;9.018;2022-12-29T16:43:34;5.13;;;2.78;;
21239;SDS011;10778;48.962;9.018;2022-12-29T16:46:25;6.07;;;3.47;;
21239;SDS011;10778;48.962;9.018;2022-12-29T16:48:54;5.88;;;3.13;;
21239;SDS011;10778;48.962;9.018;2022-12-29T16:51:33;6.40;;;3.70;;
21239;SDS011;10778;48.962;9.018;2022-12-29T16:54:01;5.50;;;3.25;;
21239;SDS011;10778;48.962;9.018;2022-12-29T16:56:30;6.28;;;3.85;;
21239;SDS011;10778;48.962;9.018;2022-12-29T16:59:16;4.60;;;3.00;;
21239;SDS011;10778;48.962;9.018;2022-12-29T17:01:50;6.20;;;4.00;;
21239;SDS011;10778;48.962;9.018;2022-12-29T17:04:17;7.22;;;3.80;;
21239;SDS011;10778;48.962;9.018;2022-12-29T17:06:43;8.77;;;4.78;;
21239;SDS011;10778;48.962;9.018;2022-12-29T17:09:22;8.65;;;3.70;;
21239;SDS011;10778;48.962;9.018;2022-12-29T17:11:51;5.72;;;3.00;;
21239;SDS011;10778;48.962;9.018;2022-12-29T17:17:13;7.05;;;3.67;;
21239;SDS011;10778;48.962;9.018;2022-12-29T17:19:51;4.13;;;3.03;;
21239;SDS011;10778;48.962;9.018;2022-12-29T17:22:21;4.70;;;3.35;;
21239;SDS011;10778;48.962;9.018;2022-12-29T17:24:56;6.85;;;3.63;;
21239;SDS011;10778;48.962;9.018;2022-12-29T17:27:31;8.05;;;3.72;;
21239;SDS011;10778;48.962;9.018;2022-12-29T17:30:02;7.22;;;4.00;;
21239;SDS011;10778;48.962;9.018;2022-12-29T17:32:36;11.00;;;4.35;;
21239;SDS011;10778;48.962;9.018;2022-12-29T17:35:03;5.28;;;2.97;;
21239;SDS011;10778;48.962;9.018;2022-12-29T17:37:30;6.55;;;3.05;;